KBBB/BBB METAR and TAF weather

Enter ICAO airport designator
Station Type Date Time Source
KBBB METAR 2021/09/27 07:55 UTC NOAA

KBBB 270755Z AUTO 04003KT 10SM CLR 11/09 A2976 RMK AO2


Station Type Date Time Source
KBBB Decoded METAR 2021/09/27 07:55 UTC NOAA

Benson Municipal, MN, United States (KBBB) 45-19N 095-39W
Sep 27, 2021 - 03:55 AM EDT / 2021.09.27 0755 UTC
Wind: from the NE (040 degrees) at 3 MPH (3 KT):0
Visibility: 10 mile(s):0
Sky conditions: clear
Temperature: 51 F (11 C)
Dew Point: 48 F (9 C)
Relative Humidity: 87%
Pressure (altimeter): 29.76 in. Hg (1007 hPa)
ob: KBBB 270755Z AUTO 04003KT 10SM CLR 11/09 A2976 RMK AO2
cycle: 8

Station Type Date Time Source
KBBB TAF UTC NOAA

Error!

Example: see airport list